Time;durP1;ratioP1;P1;durP2;ratioP2;P2;SDS_P1;SDS_P2;PMS_P1;PMS_P2;Temp;Humidity;BMP_temperature;BMP_pressure;BME280_temperature;BME280_humidity;BME280_pressure;Samples;Min_cycle;Max_cycle;Signal;HPM_P1;HPM_P2
2022/04/18 00:01:56;;;;;;;0.22;0.20;;;;;;;;;;4147327;28;20060;-33
2022/04/18 00:03:57;;;;;;;0.57;0.20;;;;;;;;;;4181344;28;20056;-34
2022/04/18 00:05:59;;;;;;;0.20;0.20;;;;;;;;;;4181244;28;20057;-33
2022/04/18 00:08:01;;;;;;;0.28;0.20;;;;;;;;;;4181404;28;20057;-34
2022/04/18 00:10:03;;;;;;;0.40;0.10;;;;;;;;;;4180873;28;20138;-33
2022/04/18 00:12:04;;;;;;;0.20;0.10;;;;;;;;;;4181093;28;20056;-36
2022/04/18 00:14:06;;;;;;;0.25;0.20;;;;;;;;;;4181050;28;20368;-34
2022/04/18 00:16:07;;;;;;;0.10;0.10;;;;;;;;;;4179675;28;20056;-35
2022/04/18 00:18:08;;;;;;;0.25;0.10;;;;;;;;;;4181085;28;20060;-32
2022/04/18 00:20:10;;;;;;;0.65;0.20;;;;;;;;;;4180920;28;20052;-34
2022/04/18 00:22:13;;;;;;;0.15;0.10;;;;;;;;;;4179801;28;20099;-37
2022/04/18 00:24:16;;;;;;;0.17;0.17;;;;;;;;;;4180495;28;20107;-34
2022/04/18 00:26:18;;;;;;;0.20;0.10;;;;;;;;;;4180878;28;20053;-33
2022/04/18 00:28:19;;;;;;;0.20;0.20;;;;;;;;;;4180845;28;20057;-35
2022/04/18 00:30:20;;;;;;;0.35;0.17;;;;;;;;;;4180825;28;20087;-31
2022/04/18 00:32:21;;;;;;;0.32;0.25;;;;;;;;;;4179227;28;20455;-32
2022/04/18 00:34:23;;;;;;;0.13;0.10;;;;;;;;;;4180699;28;20167;-33
2022/04/18 00:36:24;;;;;;;0.57;0.20;;;;;;;;;;4180614;28;20308;-32
2022/04/18 00:38:25;;;;;;;0.30;0.25;;;;;;;;;;4180343;28;20099;-34
2022/04/18 00:40:27;;;;;;;0.20;0.10;;;;;;;;;;4180552;28;20064;-34
2022/04/18 00:42:28;;;;;;;0.10;0.10;;;;;;;;;;4180528;28;20098;-34
2022/04/18 00:44:29;;;;;;;0.10;0.10;;;;;;;;;;4179129;28;20098;-34
2022/04/18 00:46:30;;;;;;;0.10;0.10;;;;;;;;;;4180696;28;20098;-35
2022/04/18 00:48:32;;;;;;;0.20;0.10;;;;;;;;;;4179062;28;20571;-33
2022/04/18 00:50:35;;;;;;;0.13;0.13;;;;;;;;;;4180714;28;20123;-33
2022/04/18 00:52:37;;;;;;;0.10;0.10;;;;;;;;;;4180204;28;20053;-35
2022/04/18 00:54:39;;;;;;;0.28;0.13;;;;;;;;;;4179811;28;20386;-33
2022/04/18 00:56:40;;;;;;;0.05;0.03;;;;;;;;;;4180353;28;20057;-33
2022/04/18 00:58:42;;;;;;;0.10;0.10;;;;;;;;;;4180045;28;20496;-34
2022/04/18 01:00:43;;;;;;;0.10;0.10;;;;;;;;;;4178839;28;20061;-34
2022/04/18 01:02:44;;;;;;;0.17;0.10;;;;;;;;;;4179199;28;20060;-33
2022/04/18 01:04:49;;;;;;;0.10;0.10;;;;;;;;;;4162411;28;20489;-32
2022/04/18 01:06:50;;;;;;;0.10;0.10;;;;;;;;;;4162452;28;20053;-34
2022/04/18 01:08:52;;;;;;;0.15;0.15;;;;;;;;;;4178328;28;20052;-33
2022/04/18 01:10:54;;;;;;;0.10;0.10;;;;;;;;;;4179074;28;20060;-32
2022/04/18 01:12:58;;;;;;;0.20;0.20;;;;;;;;;;4178610;28;20103;-34
2022/04/18 01:15:13;;;;;;;0.30;0.22;;;;;;;;;;4164346;28;20053;-31
2022/04/18 01:17:34;;;;;;;0.20;0.10;;;;;;;;;;4180090;28;20451;-37
2022/04/18 01:19:57;;;;;;;0.20;0.20;;;;;;;;;;4178758;28;20060;-35
2022/04/18 01:22:12;;;;;;;0.10;0.10;;;;;;;;;;4178968;28;20087;-32
2022/04/18 01:29:08;;;;;;;0.20;0.15;;;;;;;;;;4179754;28;20056;-33
2022/04/18 01:31:13;;;;;;;0.10;0.10;;;;;;;;;;4178854;28;20053;-35
2022/04/18 01:33:14;;;;;;;0.30;0.20;;;;;;;;;;4179088;28;20602;-33
2022/04/18 01:35:17;;;;;;;0.17;0.17;;;;;;;;;;4178519;28;20064;-32
2022/04/18 01:37:19;;;;;;;0.20;0.20;;;;;;;;;;4179772;28;20424;-33
2022/04/18 01:39:20;;;;;;;0.10;0.10;;;;;;;;;;4177928;28;20095;-34
2022/04/18 01:41:22;;;;;;;0.50;0.20;;;;;;;;;;4178422;28;20056;-34
2022/04/18 01:43:23;;;;;;;0.30;0.10;;;;;;;;;;4178210;28;20454;-32
2022/04/18 01:45:25;;;;;;;0.30;0.20;;;;;;;;;;4178314;28;20492;-33
2022/04/18 01:47:37;;;;;;;0.10;0.10;;;;;;;;;;4178406;28;20108;-33
2022/04/18 01:49:38;;;;;;;0.75;0.28;;;;;;;;;;4179483;28;20099;-32
2022/04/18 01:51:40;;;;;;;0.08;0.08;;;;;;;;;;4178234;28;20103;-31
2022/04/18 01:53:43;;;;;;;0.30;0.10;;;;;;;;;;4177700;28;20439;-32
2022/04/18 01:55:44;;;;;;;0.35;0.20;;;;;;;;;;4178177;28;20582;-34
2022/04/18 01:57:46;;;;;;;0.20;0.13;;;;;;;;;;4178402;28;20057;-33
2022/04/18 01:59:47;;;;;;;0.28;0.10;;;;;;;;;;4161652;28;20054;-31
2022/04/18 02:01:49;;;;;;;0.45;0.20;;;;;;;;;;4179509;28;20493;-36
2022/04/18 02:03:50;;;;;;;0.35;0.22;;;;;;;;;;4178132;28;20394;-32
2022/04/18 02:05:53;;;;;;;0.20;0.20;;;;;;;;;;4178467;28;20061;-31
2022/04/18 02:07:54;;;;;;;0.17;0.17;;;;;;;;;;4178046;28;20103;-36
2022/04/18 02:09:55;;;;;;;0.10;0.10;;;;;;;;;;4177621;28;20049;-35
2022/04/18 02:11:56;;;;;;;0.20;0.20;;;;;;;;;;4178082;28;20057;-33
2022/04/18 02:14:03;;;;;;;0.20;0.20;;;;;;;;;;4178043;28;20049;-33
2022/04/18 02:16:04;;;;;;;0.08;0.08;;;;;;;;;;4179398;28;20519;-35
2022/04/18 02:18:05;;;;;;;0.10;0.10;;;;;;;;;;4179317;28;20083;-31
2022/04/18 02:20:07;;;;;;;0.20;0.20;;;;;;;;;;4177933;28;20053;-35
2022/04/18 02:22:08;;;;;;;0.15;0.15;;;;;;;;;;4179313;28;20507;-33
2022/04/18 02:24:09;;;;;;;0.22;0.10;;;;;;;;;;4178708;28;20052;-32
2022/04/18 02:26:11;;;;;;;0.13;0.13;;;;;;;;;;4161693;28;20057;-33
2022/04/18 02:28:14;;;;;;;0.30;0.10;;;;;;;;;;4161941;28;20061;-32
2022/04/18 02:30:21;;;;;;;0.57;0.22;;;;;;;;;;4178097;28;20158;-31
2022/04/18 02:34:43;;;;;;;0.20;0.20;;;;;;;;;;4177922;28;20057;-32
2022/04/18 02:36:45;;;;;;;0.10;0.10;;;;;;;;;;4177945;28;20049;-31
2022/04/18 02:38:46;;;;;;;0.20;0.10;;;;;;;;;;4178581;28;20053;-34
2022/04/18 02:40:48;;;;;;;0.13;0.13;;;;;;;;;;4178110;28;20056;-33
2022/04/18 02:42:49;;;;;;;0.30;0.10;;;;;;;;;;4177931;28;20056;-33
2022/04/18 02:44:50;;;;;;;0.20;0.10;;;;;;;;;;4161780;28;20053;-31
2022/04/18 02:46:56;;;;;;;0.20;0.20;;;;;;;;;;4181374;28;20057;-31
2022/04/18 02:48:58;;;;;;;0.10;0.10;;;;;;;;;;4180876;28;20053;-38
2022/04/18 02:51:00;;;;;;;0.20;0.10;;;;;;;;;;4180937;28;20060;-35
2022/04/18 02:53:07;;;;;;;0.25;0.20;;;;;;;;;;4180764;28;20057;-35
2022/04/18 02:55:20;;;;;;;0.10;0.10;;;;;;;;;;4164410;28;20725;-38
2022/04/18 02:57:21;;;;;;;0.10;0.10;;;;;;;;;;4180925;28;20049;-37
2022/04/18 02:59:22;;;;;;;0.10;0.10;;;;;;;;;;4180619;28;20065;-40
2022/04/18 03:01:23;;;;;;;0.40;0.15;;;;;;;;;;4182440;28;20057;-37
2022/04/18 03:03:25;;;;;;;0.10;0.10;;;;;;;;;;4164461;28;20049;-35
2022/04/18 03:05:26;;;;;;;0.30;0.20;;;;;;;;;;4180724;28;20057;-38
2022/04/18 03:07:28;;;;;;;0.45;0.20;;;;;;;;;;4180689;28;20087;-37
2022/04/18 03:09:31;;;;;;;0.10;0.10;;;;;;;;;;4180214;28;20083;-38
2022/04/18 03:11:32;;;;;;;0.17;0.17;;;;;;;;;;4182029;28;20404;-34
2022/04/18 03:13:35;;;;;;;0.63;0.15;;;;;;;;;;4181706;28;20098;-34
2022/04/18 03:15:40;;;;;;;0.10;0.10;;;;;;;;;;4164701;28;20080;-39
2022/04/18 03:17:41;;;;;;;0.22;0.10;;;;;;;;;;4164130;28;20131;-37
2022/04/18 03:19:43;;;;;;;0.20;0.20;;;;;;;;;;4181760;28;20103;-34
2022/04/18 03:21:45;;;;;;;0.47;0.25;;;;;;;;;;4180524;28;20083;-35
2022/04/18 03:23:46;;;;;;;0.10;0.10;;;;;;;;;;4180156;28;20486;-39
2022/04/18 03:26:07;;;;;;;0.08;0.08;;;;;;;;;;4180560;28;20389;-40
2022/04/18 03:28:28;;;;;;;0.73;0.30;;;;;;;;;;4180391;28;20136;-37
2022/04/18 03:30:29;;;;;;;0.10;0.00;;;;;;;;;;4181963;28;20067;-36
2022/04/18 03:32:30;;;;;;;0.17;0.17;;;;;;;;;;4180587;28;20103;-39
2022/04/18 03:34:32;;;;;;;0.25;0.20;;;;;;;;;;4180257;28;20064;-39
2022/04/18 03:41:16;;;;;;;0.10;0.10;;;;;;;;;;4180238;28;20253;-35
2022/04/18 03:43:17;;;;;;;0.20;0.10;;;;;;;;;;4180056;28;20582;-40
2022/04/18 03:45:18;;;;;;;0.17;0.15;;;;;;;;;;4180158;28;20103;-38
2022/04/18 03:47:19;;;;;;;0.10;0.10;;;;;;;;;;4180281;28;20111;-36
2022/04/18 03:49:20;;;;;;;0.15;0.10;;;;;;;;;;4180139;28;20061;-37
2022/04/18 03:51:24;;;;;;;0.13;0.10;;;;;;;;;;4181271;28;20045;-38
2022/04/18 03:53:25;;;;;;;0.20;0.10;;;;;;;;;;4179383;28;20582;-39
2022/04/18 03:55:27;;;;;;;0.17;0.10;;;;;;;;;;4179960;28;20052;-38
2022/04/18 03:57:30;;;;;;;0.10;0.10;;;;;;;;;;4163679;28;20057;-39
2022/04/18 03:59:35;;;;;;;0.47;0.10;;;;;;;;;;4179506;28;20535;-36
2022/04/18 04:01:39;;;;;;;0.10;0.10;;;;;;;;;;4179753;28;20060;-36
2022/04/18 04:03:40;;;;;;;0.10;0.10;;;;;;;;;;4179681;28;20364;-38
2022/04/18 04:05:42;;;;;;;0.28;0.10;;;;;;;;;;4163288;28;20637;-36
2022/04/18 04:07:45;;;;;;;0.10;0.10;;;;;;;;;;4179693;28;20122;-36
2022/04/18 04:10:05;;;;;;;0.20;0.15;;;;;;;;;;4170358;28;20119;-36
2022/04/18 04:12:07;;;;;;;0.00;0.00;;;;;;;;;;4162940;28;20508;-36
2022/04/18 04:14:20;;;;;;;0.60;0.10;;;;;;;;;;4163260;28;20065;-38
2022/04/18 04:16:21;;;;;;;0.10;0.10;;;;;;;;;;4163109;28;20167;-40
2022/04/18 04:18:24;;;;;;;0.10;0.10;;;;;;;;;;4164283;28;20061;-40
2022/04/18 04:20:26;;;;;;;0.10;0.10;;;;;;;;;;4163373;28;20057;-37
2022/04/18 04:22:28;;;;;;;0.10;0.10;;;;;;;;;;4163177;28;20053;-35
2022/04/18 04:24:37;;;;;;;0.00;0.00;;;;;;;;;;4162589;28;20049;-37
2022/04/18 04:26:41;;;;;;;0.30;0.10;;;;;;;;;;4162911;28;20467;-34
2022/04/18 04:28:45;;;;;;;0.17;0.10;;;;;;;;;;4162787;28;20148;-39
2022/04/18 04:30:51;;;;;;;0.10;0.10;;;;;;;;;;4162993;28;20054;-36
2022/04/18 04:32:53;;;;;;;0.20;0.20;;;;;;;;;;4173900;28;20049;-38
2022/04/18 04:34:55;;;;;;;0.28;0.10;;;;;;;;;;4180622;28;20053;-40
2022/04/18 04:37:13;;;;;;;0.20;0.10;;;;;;;;;;4179516;28;20499;-38
2022/04/18 04:39:18;;;;;;;0.28;0.10;;;;;;;;;;4178836;28;20057;-37
2022/04/18 04:41:20;;;;;;;0.10;0.10;;;;;;;;;;4179438;28;20122;-39
2022/04/18 04:43:29;;;;;;;0.25;0.20;;;;;;;;;;4179299;28;20045;-33
2022/04/18 04:45:32;;;;;;;0.32;0.10;;;;;;;;;;4179308;28;20064;-38
2022/04/18 04:47:50;;;;;;;0.15;0.10;;;;;;;;;;4179376;28;20056;-37
2022/04/18 04:49:51;;;;;;;0.10;0.10;;;;;;;;;;4178988;28;20064;-38
2022/04/18 04:52:01;;;;;;;0.10;0.10;;;;;;;;;;4179353;28;20200;-39
2022/04/18 04:54:03;;;;;;;0.52;0.20;;;;;;;;;;4161954;28;20053;-36
2022/04/18 04:56:08;;;;;;;0.10;0.10;;;;;;;;;;4163209;28;20056;-38
2022/04/18 04:58:13;;;;;;;0.10;0.10;;;;;;;;;;4162350;28;20068;-37
2022/04/18 05:00:14;;;;;;;0.10;0.10;;;;;;;;;;4178151;28;20104;-37
2022/04/18 05:02:35;;;;;;;0.22;0.13;;;;;;;;;;4174441;28;20049;-38
2022/04/18 05:04:37;;;;;;;0.20;0.10;;;;;;;;;;4159956;28;20057;-38
2022/04/18 05:06:40;;;;;;;0.13;0.10;;;;;;;;;;4164441;28;20061;-35
2022/04/18 05:08:44;;;;;;;0.25;0.20;;;;;;;;;;4175512;28;20057;-37
2022/04/18 05:10:46;;;;;;;0.20;0.10;;;;;;;;;;4176695;28;20087;-37
2022/04/18 05:12:54;;;;;;;0.38;0.20;;;;;;;;;;4176223;28;20079;-39
2022/04/18 05:15:01;;;;;;;0.10;0.10;;;;;;;;;;4176577;28;20056;-38
2022/04/18 05:17:07;;;;;;;0.15;0.10;;;;;;;;;;4178148;28;20106;-37
2022/04/18 05:19:19;;;;;;;0.10;0.10;;;;;;;;;;4176424;28;20061;-38
2022/04/18 05:21:22;;;;;;;0.10;0.10;;;;;;;;;;4176578;28;20048;-37
2022/04/18 05:23:25;;;;;;;0.20;0.20;;;;;;;;;;4176049;28;20719;-35
2022/04/18 05:25:30;;;;;;;0.82;0.20;;;;;;;;;;4176233;28;20417;-38
2022/04/18 05:27:31;;;;;;;0.17;0.10;;;;;;;;;;4160142;28;20417;-37
2022/04/18 05:29:32;;;;;;;0.10;0.10;;;;;;;;;;4176248;28;20088;-39
2022/04/18 05:31:34;;;;;;;0.25;0.10;;;;;;;;;;4176579;28;20061;-40
2022/04/18 05:33:36;;;;;;;0.10;0.10;;;;;;;;;;4176151;28;20083;-39
2022/04/18 05:35:45;;;;;;;0.20;0.10;;;;;;;;;;4176498;28;20056;-37
2022/04/18 05:37:48;;;;;;;0.17;0.17;;;;;;;;;;4175845;28;20045;-39
2022/04/18 05:40:04;;;;;;;0.20;0.20;;;;;;;;;;4175877;28;20102;-37
2022/04/18 05:42:09;;;;;;;0.10;0.10;;;;;;;;;;4176269;28;20053;-38
2022/04/18 05:44:10;;;;;;;0.32;0.10;;;;;;;;;;4176379;28;20083;-37
2022/04/18 05:46:24;;;;;;;0.10;0.10;;;;;;;;;;4176255;28;20060;-34
2022/04/18 05:48:25;;;;;;;0.20;0.20;;;;;;;;;;4159540;28;20061;-37
2022/04/18 05:50:30;;;;;;;0.20;0.10;;;;;;;;;;4176321;28;20106;-36
2022/04/18 05:52:52;;;;;;;1.48;0.20;;;;;;;;;;4176191;28;20060;-38
2022/04/18 05:55:13;;;;;;;0.05;0.05;;;;;;;;;;4177320;28;20049;-38
2022/04/18 05:57:14;;;;;;;0.20;0.10;;;;;;;;;;4176207;28;20061;-37
2022/04/18 05:59:20;;;;;;;0.10;0.10;;;;;;;;;;4175940;28;20057;-35
2022/04/18 06:01:38;;;;;;;0.10;0.10;;;;;;;;;;4175896;28;20104;-38
2022/04/18 06:03:47;;;;;;;0.10;0.08;;;;;;;;;;4176011;28;20194;-37
2022/04/18 06:05:48;;;;;;;0.60;0.10;;;;;;;;;;4177309;28;20060;-37
2022/04/18 06:07:54;;;;;;;0.10;0.10;;;;;;;;;;4175943;28;20633;-35
2022/04/18 06:10:03;;;;;;;0.10;0.05;;;;;;;;;;4177193;28;20049;-37
2022/04/18 06:12:05;;;;;;;0.10;0.10;;;;;;;;;;4175972;28;20416;-37
2022/04/18 06:14:12;;;;;;;0.10;0.10;;;;;;;;;;4176402;28;20060;-39
2022/04/18 06:16:19;;;;;;;0.10;0.10;;;;;;;;;;4176302;28;20481;-36
2022/04/18 06:18:22;;;;;;;0.25;0.10;;;;;;;;;;4175770;28;20538;-37
2022/04/18 06:20:24;;;;;;;0.20;0.20;;;;;;;;;;4178963;28;20122;-36
2022/04/18 06:22:25;;;;;;;0.10;0.10;;;;;;;;;;4179361;28;20102;-36
2022/04/18 06:24:29;;;;;;;0.32;0.32;;;;;;;;;;4178374;28;20574;-38
2022/04/18 06:26:39;;;;;;;0.20;0.10;;;;;;;;;;4180829;28;20111;-38
2022/04/18 06:28:41;;;;;;;0.10;0.10;;;;;;;;;;4179350;28;20524;-38
2022/04/18 06:30:42;;;;;;;0.47;0.40;;;;;;;;;;4179097;28;20546;-39
2022/04/18 06:33:09;;;;;;;0.10;0.08;;;;;;;;;;4179361;28;20045;-39
2022/04/18 06:35:12;;;;;;;0.43;0.20;;;;;;;;;;4179226;28;20417;-37
2022/04/18 06:37:14;;;;;;;0.05;0.05;;;;;;;;;;4178976;28;20057;-40
2022/04/18 06:39:31;;;;;;;0.60;0.15;;;;;;;;;;4178777;28;20416;-38
2022/04/18 06:41:45;;;;;;;0.15;0.15;;;;;;;;;;4179093;28;20057;-37
2022/04/18 06:43:52;;;;;;;0.32;0.10;;;;;;;;;;4178954;28;20100;-39
2022/04/18 06:45:54;;;;;;;0.15;0.15;;;;;;;;;;4180262;28;20060;-36
2022/04/18 06:47:57;;;;;;;0.20;0.10;;;;;;;;;;4178883;28;20087;-36
2022/04/18 06:50:14;;;;;;;0.30;0.10;;;;;;;;;;4179002;28;20103;-36
2022/04/18 06:52:38;;;;;;;0.10;0.10;;;;;;;;;;4180447;28;20102;-38
2022/04/18 06:54:58;;;;;;;0.10;0.10;;;;;;;;;;4178616;28;20064;-36
2022/04/18 06:57:00;;;;;;;0.22;0.10;;;;;;;;;;4178865;28;20487;-37
2022/04/18 06:59:34;;;;;;;0.05;0.05;;;;;;;;;;4175893;28;20083;-40
2022/04/18 07:01:35;;;;;;;0.10;0.10;;;;;;;;;;4178505;28;20551;-38
2022/04/18 07:03:36;;;;;;;0.10;0.10;;;;;;;;;;4178804;28;20056;-34
2022/04/18 07:05:41;;;;;;;0.15;0.10;;;;;;;;;;4180089;28;20053;-37
2022/04/18 07:07:43;;;;;;;0.10;0.10;;;;;;;;;;4179987;28;20065;-36
2022/04/18 07:09:44;;;;;;;0.40;0.20;;;;;;;;;;4178223;28;20443;-35
2022/04/18 07:11:51;;;;;;;0.25;0.17;;;;;;;;;;4179021;28;20060;-35
2022/04/18 07:13:55;;;;;;;0.10;0.10;;;;;;;;;;4161553;28;20053;-35
2022/04/18 07:15:56;;;;;;;0.10;0.10;;;;;;;;;;4178532;28;20492;-34
2022/04/18 07:17:57;;;;;;;0.13;0.10;;;;;;;;;;4178756;28;20057;-35
2022/04/18 07:19:58;;;;;;;0.22;0.10;;;;;;;;;;4179583;28;20124;-39
2022/04/18 07:22:02;;;;;;;0.40;0.20;;;;;;;;;;4178243;28;20065;-35
2022/04/18 07:24:06;;;;;;;0.10;0.10;;;;;;;;;;4177882;28;20346;-38
2022/04/18 07:26:08;;;;;;;0.15;0.10;;;;;;;;;;4178108;28;20057;-37
2022/04/18 07:28:11;;;;;;;0.70;0.17;;;;;;;;;;4178393;28;20061;-35
2022/04/18 07:30:12;;;;;;;0.10;0.10;;;;;;;;;;4178330;28;20061;-37
2022/04/18 07:32:14;;;;;;;0.50;0.17;;;;;;;;;;4177586;28;20466;-37
2022/04/18 07:34:15;;;;;;;0.10;0.10;;;;;;;;;;4178330;28;20574;-35
2022/04/18 07:36:16;;;;;;;0.17;0.10;;;;;;;;;;4177882;28;20448;-37
2022/04/18 07:40:38;;;;;;;0.20;0.20;;;;;;;;;;4178417;28;20061;-34
2022/04/18 07:42:42;;;;;;;0.10;0.10;;;;;;;;;;4178029;28;20057;-36
2022/04/18 07:44:43;;;;;;;0.10;0.10;;;;;;;;;;4177895;28;20052;-36
2022/04/18 07:46:45;;;;;;;0.05;0.05;;;;;;;;;;4178040;28;20057;-39
2022/04/18 07:48:54;;;;;;;0.20;0.20;;;;;;;;;;4177571;28;20052;-36
2022/04/18 07:53:14;;;;;;;;;;;;;;;;;;4178126;28;20053;-34
2022/04/18 07:55:16;;;;;;;0.10;0.10;;;;;;;;;;4177813;28;20412;-34
2022/04/18 07:57:18;;;;;;;0.30;0.20;;;;;;;;;;4177754;28;20055;-38
2022/04/18 07:59:26;;;;;;;0.10;0.10;;;;;;;;;;4177478;28;20411;-35
2022/04/18 08:01:27;;;;;;;0.15;0.10;;;;;;;;;;4177647;28;20057;-38
2022/04/18 08:03:33;;;;;;;0.00;0.00;;;;;;;;;;4161333;28;20057;-35
2022/04/18 08:05:34;;;;;;;0.08;0.08;;;;;;;;;;4177697;28;20061;-36
2022/04/18 08:07:42;;;;;;;0.10;0.10;;;;;;;;;;4177650;28;20091;-35
2022/04/18 08:09:43;;;;;;;0.10;0.10;;;;;;;;;;4177188;28;20107;-38
2022/04/18 08:11:45;;;;;;;0.10;0.10;;;;;;;;;;4177520;28;20053;-38
2022/04/18 08:13:50;;;;;;;0.20;0.10;;;;;;;;;;4177174;28;20118;-37
2022/04/18 08:16:18;;;;;;;0.10;0.10;;;;;;;;;;4178721;28;20111;-39
2022/04/18 08:18:25;;;;;;;0.20;0.20;;;;;;;;;;4177542;28;20064;-38
2022/04/18 08:20:28;;;;;;;0.25;0.20;;;;;;;;;;4177716;28;20053;-38
2022/04/18 08:22:29;;;;;;;0.20;0.10;;;;;;;;;;4178949;28;20060;-39
2022/04/18 08:24:50;;;;;;;0.20;0.10;;;;;;;;;;4186570;28;20052;-39
2022/04/18 08:27:24;;;;;;;0.10;0.10;;;;;;;;;;4177860;28;20064;-37
2022/04/18 08:29:37;;;;;;;0.28;0.10;;;;;;;;;;4177582;28;20053;-34
2022/04/18 08:31:55;;;;;;;0.20;0.17;;;;;;;;;;4177410;28;20441;-36
2022/04/18 08:34:06;;;;;;;0.20;0.20;;;;;;;;;;4177246;28;20389;-35
2022/04/18 08:36:08;;;;;;;0.00;0.00;;;;;;;;;;4177319;28;20422;-39
2022/04/18 08:38:09;;;;;;;0.10;0.10;;;;;;;;;;4178280;28;20057;-35
2022/04/18 08:40:11;;;;;;;0.25;0.22;;;;;;;;;;4178544;28;20057;-39
2022/04/18 08:42:15;;;;;;;0.43;0.10;;;;;;;;;;4160142;28;20182;-35
2022/04/18 08:44:20;;;;;;;0.77;0.10;;;;;;;;;;4176827;28;20057;-37
2022/04/18 08:46:24;;;;;;;0.10;0.10;;;;;;;;;;4177205;28;20067;-37
2022/04/18 08:53:06;;;;;;;0.20;0.10;;;;;;;;;;4177035;28;20045;-36
2022/04/18 08:55:10;;;;;;;0.10;0.10;;;;;;;;;;4160610;28;20053;-38
2022/04/18 08:57:12;;;;;;;0.10;0.10;;;;;;;;;;4176877;28;20095;-38
2022/04/18 08:59:13;;;;;;;1.08;0.20;;;;;;;;;;4178387;28;20061;-40
2022/04/18 09:01:14;;;;;;;0.17;0.10;;;;;;;;;;4170328;28;20053;-40
2022/04/18 09:03:36;;;;;;;0.17;0.10;;;;;;;;;;4163676;28;20100;-36
2022/04/18 09:05:39;;;;;;;0.25;0.20;;;;;;;;;;4161639;28;20088;-32
2022/04/18 09:07:42;;;;;;;0.63;0.17;;;;;;;;;;4146017;28;20062;-40
2022/04/18 09:09:43;;;;;;;0.35;0.20;;;;;;;;;;4161944;28;20073;-39
2022/04/18 09:11:48;;;;;;;0.10;0.10;;;;;;;;;;4163988;28;20057;-38
2022/04/18 09:14:15;;;;;;;0.10;0.10;;;;;;;;;;4162239;28;20548;-36
2022/04/18 09:16:27;;;;;;;0.10;0.10;;;;;;;;;;4162573;28;20061;-35
2022/04/18 09:18:29;;;;;;;0.25;0.20;;;;;;;;;;4162136;28;20050;-35
2022/04/18 09:21:01;;;;;;;0.00;0.00;;;;;;;;;;4162580;28;20057;-37
2022/04/18 09:23:18;;;;;;;0.20;0.20;;;;;;;;;;4146063;28;20053;-37
2022/04/18 09:25:21;;;;;;;0.20;0.20;;;;;;;;;;4162298;28;20087;-37
2022/04/18 09:27:29;;;;;;;0.10;0.10;;;;;;;;;;4162035;28;20061;-38
2022/04/18 09:30:07;;;;;;;0.32;0.20;;;;;;;;;;4161947;28;20595;-37
2022/04/18 09:32:12;;;;;;;0.57;0.20;;;;;;;;;;4162266;28;20057;-36
2022/04/18 09:34:34;;;;;;;0.40;0.30;;;;;;;;;;4163150;28;20053;-37
2022/04/18 09:36:35;;;;;;;0.10;0.10;;;;;;;;;;4162025;28;20057;-37
2022/04/18 09:38:39;;;;;;;0.28;0.20;;;;;;;;;;4162705;28;20045;-39
2022/04/18 09:40:50;;;;;;;0.73;0.28;;;;;;;;;;4163242;28;20512;-39
2022/04/18 09:42:55;;;;;;;0.43;0.20;;;;;;;;;;4161888;28;20053;-36
2022/04/18 09:45:01;;;;;;;0.73;0.20;;;;;;;;;;4161863;28;20049;-37
2022/04/18 09:47:03;;;;;;;0.20;0.20;;;;;;;;;;4161902;28;20053;-37
2022/04/18 09:49:15;;;;;;;0.35;0.20;;;;;;;;;;4161703;28;20053;-38
2022/04/18 09:51:29;;;;;;;0.15;0.10;;;;;;;;;;4161822;28;20053;-38
2022/04/18 09:53:46;;;;;;;0.30;0.20;;;;;;;;;;4160736;28;20056;-39
2022/04/18 09:55:50;;;;;;;1.42;0.20;;;;;;;;;;4163079;28;20088;-38
2022/04/18 09:57:51;;;;;;;0.40;0.30;;;;;;;;;;4163029;28;20049;-35
2022/04/18 09:59:54;;;;;;;0.22;0.20;;;;;;;;;;4173422;28;20049;-37
2022/04/18 10:01:55;;;;;;;0.20;0.10;;;;;;;;;;4179444;28;20048;-38
2022/04/18 10:03:56;;;;;;;0.25;0.20;;;;;;;;;;4178049;28;20102;-39
2022/04/18 10:05:58;;;;;;;0.30;0.10;;;;;;;;;;4179404;28;20389;-37
2022/04/18 10:08:03;;;;;;;0.20;0.20;;;;;;;;;;4179244;28;20481;-35
2022/04/18 10:10:06;;;;;;;0.35;0.20;;;;;;;;;;4178904;28;20128;-39
2022/04/18 10:12:08;;;;;;;0.90;0.13;;;;;;;;;;4179269;28;20106;-39
2022/04/18 10:14:10;;;;;;;1.05;0.25;;;;;;;;;;4179240;28;20547;-36
2022/04/18 10:16:12;;;;;;;0.10;0.10;;;;;;;;;;4179438;28;20057;-35
2022/04/18 10:18:15;;;;;;;0.15;0.10;;;;;;;;;;4179274;28;20393;-36
2022/04/18 10:20:24;;;;;;;0.38;0.30;;;;;;;;;;4179351;28;20076;-37
2022/04/18 10:22:51;;;;;;;0.50;0.20;;;;;;;;;;4161428;28;20418;-37
2022/04/18 10:25:24;;;;;;;0.32;0.22;;;;;;;;;;4177640;28;20056;-36
2022/04/18 10:27:33;;;;;;;0.82;0.15;;;;;;;;;;4161549;28;20099;-37
2022/04/18 10:29:39;;;;;;;0.40;0.20;;;;;;;;;;4177989;28;20053;-36
2022/04/18 10:31:41;;;;;;;0.30;0.20;;;;;;;;;;4178080;28;20053;-38
2022/04/18 10:33:43;;;;;;;0.65;0.10;;;;;;;;;;4161333;28;20155;-40
2022/04/18 10:36:00;;;;;;;1.25;0.30;;;;;;;;;;4161401;28;20049;-36
2022/04/18 10:38:03;;;;;;;0.75;0.30;;;;;;;;;;4162652;28;20103;-37
2022/04/18 10:40:08;;;;;;;0.22;0.22;;;;;;;;;;4162142;28;20060;-35
2022/04/18 10:42:30;;;;;;;0.50;0.20;;;;;;;;;;4162656;28;20103;-40
2022/04/18 10:44:34;;;;;;;0.20;0.20;;;;;;;;;;4162559;28;20049;-34
2022/04/18 10:46:37;;;;;;;0.25;0.25;;;;;;;;;;4177904;28;20485;-40
2022/04/18 10:48:38;;;;;;;0.77;0.20;;;;;;;;;;4162693;28;20053;-40
2022/04/18 10:50:42;;;;;;;0.20;0.20;;;;;;;;;;4162679;28;20053;-40
2022/04/18 10:53:06;;;;;;;0.28;0.17;;;;;;;;;;4162719;28;20057;-36
2022/04/18 10:55:18;;;;;;;0.20;0.20;;;;;;;;;;4162174;28;20056;-36
2022/04/18 10:57:26;;;;;;;0.20;0.10;;;;;;;;;;4162854;28;20087;-34
2022/04/18 10:59:56;;;;;;;0.32;0.20;;;;;;;;;;4162468;28;20382;-37
2022/04/18 11:02:01;;;;;;;0.30;0.20;;;;;;;;;;4157862;28;20056;-36
2022/04/18 11:04:07;;;;;;;0.30;0.20;;;;;;;;;;4162524;28;20111;-36
2022/04/18 11:06:15;;;;;;;0.30;0.20;;;;;;;;;;4163333;28;20331;-35
2022/04/18 11:08:23;;;;;;;0.28;0.20;;;;;;;;;;4181557;28;20707;-39
2022/04/18 11:10:25;;;;;;;1.45;0.20;;;;;;;;;;4182350;28;20107;-37
2022/04/18 11:12:27;;;;;;;1.23;0.20;;;;;;;;;;4181868;28;20060;-37
2022/04/18 11:14:49;;;;;;;0.40;0.20;;;;;;;;;;4181769;28;20106;-35
2022/04/18 11:16:53;;;;;;;0.85;0.20;;;;;;;;;;4181952;28;20110;-36
2022/04/18 11:19:07;;;;;;;0.88;0.30;;;;;;;;;;4181647;28;20401;-39
2022/04/18 11:21:08;;;;;;;0.25;0.10;;;;;;;;;;4181683;28;20451;-38
2022/04/18 11:23:19;;;;;;;0.30;0.20;;;;;;;;;;4163826;28;20093;-37
2022/04/18 11:25:23;;;;;;;0.40;0.30;;;;;;;;;;4182040;28;20437;-40
2022/04/18 11:27:27;;;;;;;0.30;0.30;;;;;;;;;;4181744;28;20049;-39
2022/04/18 11:29:30;;;;;;;0.20;0.20;;;;;;;;;;4181649;28;20083;-38
2022/04/18 11:31:31;;;;;;;1.48;0.20;;;;;;;;;;4181830;28;20053;-39
2022/04/18 11:33:39;;;;;;;0.22;0.22;;;;;;;;;;4180202;28;20107;-39
2022/04/18 11:35:42;;;;;;;1.15;0.17;;;;;;;;;;4181692;28;20049;-36
2022/04/18 11:37:44;;;;;;;0.15;0.10;;;;;;;;;;4181724;28;20400;-38
2022/04/18 11:39:48;;;;;;;0.10;0.10;;;;;;;;;;4181055;28;20163;-38
2022/04/18 11:41:49;;;;;;;0.15;0.10;;;;;;;;;;4181625;28;20060;-36
2022/04/18 11:43:56;;;;;;;0.50;0.20;;;;;;;;;;4180066;28;20122;-38
2022/04/18 11:46:06;;;;;;;0.95;0.28;;;;;;;;;;4181351;28;20550;-35
2022/04/18 11:48:07;;;;;;;1.17;0.20;;;;;;;;;;4180004;28;20053;-38
2022/04/18 11:50:09;;;;;;;0.60;0.28;;;;;;;;;;4180101;28;20049;-38
2022/04/18 11:52:18;;;;;;;0.28;0.20;;;;;;;;;;4181356;28;20118;-38
2022/04/18 11:54:19;;;;;;;0.30;0.20;;;;;;;;;;4180842;28;20053;-35
2022/04/18 11:56:22;;;;;;;0.20;0.20;;;;;;;;;;4181234;28;20061;-37
2022/04/18 11:58:23;;;;;;;0.43;0.28;;;;;;;;;;4181249;28;20496;-36
2022/04/18 12:07:24;;;;;;;;;;;;;;;;;;4181983;28;20049;-35
2022/04/18 12:09:25;;;;;;;0.45;0.20;;;;;;;;;;4180697;28;19921;-35
2022/04/18 12:11:33;;;;;;;0.17;0.17;;;;;;;;;;4181196;28;20099;-37
2022/04/18 12:13:42;;;;;;;0.30;0.20;;;;;;;;;;4180975;28;20428;-36
2022/04/18 12:15:43;;;;;;;0.40;0.28;;;;;;;;;;4179804;28;20061;-38
2022/04/18 12:17:44;;;;;;;0.15;0.15;;;;;;;;;;4180513;28;20099;-35
2022/04/18 12:19:45;;;;;;;0.52;0.30;;;;;;;;;;4180770;28;20084;-36
2022/04/18 12:21:51;;;;;;;0.22;0.20;;;;;;;;;;4181122;28;20095;-37
2022/04/18 12:23:56;;;;;;;0.17;0.17;;;;;;;;;;4180239;28;20053;-38
2022/04/18 12:25:58;;;;;;;0.68;0.30;;;;;;;;;;4180975;28;20053;-36
2022/04/18 12:28:04;;;;;;;0.20;0.17;;;;;;;;;;4180863;28;20057;-36
2022/04/18 12:30:05;;;;;;;0.10;0.10;;;;;;;;;;4180825;28;20053;-35
2022/04/18 12:32:23;;;;;;;0.10;0.10;;;;;;;;;;4179652;28;20064;-38
2022/04/18 12:34:24;;;;;;;0.20;0.10;;;;;;;;;;4179163;28;20087;-33
2022/04/18 12:36:27;;;;;;;0.10;0.10;;;;;;;;;;4180653;28;20079;-38
2022/04/18 12:38:31;;;;;;;0.20;0.20;;;;;;;;;;4180056;28;20056;-38
2022/04/18 12:40:33;;;;;;;0.47;0.30;;;;;;;;;;4180635;28;20122;-35
2022/04/18 12:42:35;;;;;;;0.20;0.20;;;;;;;;;;4180532;28;20061;-36
2022/04/18 12:44:39;;;;;;;0.85;0.20;;;;;;;;;;4179181;28;20385;-38
2022/04/18 12:46:41;;;;;;;0.20;0.10;;;;;;;;;;4179235;28;20174;-35
2022/04/18 12:48:49;;;;;;;0.15;0.15;;;;;;;;;;4180216;28;20500;-36
2022/04/18 12:50:51;;;;;;;0.38;0.20;;;;;;;;;;4180390;28;20053;-37
2022/04/18 12:52:52;;;;;;;0.75;0.30;;;;;;;;;;4180404;28;20511;-37
2022/04/18 12:55:05;;;;;;;1.65;0.20;;;;;;;;;;4180040;28;20114;-33
2022/04/18 12:57:18;;;;;;;0.28;0.20;;;;;;;;;;4180454;28;20099;-38
2022/04/18 12:59:31;;;;;;;0.28;0.10;;;;;;;;;;4175854;28;20386;-35
2022/04/18 13:01:39;;;;;;;0.20;0.20;;;;;;;;;;4178704;28;20067;-34